createdAt,value
2017-08-28T00:00:34.291Z,99.90
2017-08-28T00:03:01.779Z,99.90
2017-08-28T00:05:29.259Z,99.90
2017-08-28T00:07:56.729Z,99.90
2017-08-28T00:10:24.202Z,99.90
2017-08-28T00:12:51.668Z,99.90
2017-08-28T00:15:19.184Z,99.90
2017-08-28T00:17:46.643Z,99.90
2017-08-28T00:20:14.106Z,99.90
2017-08-28T00:22:41.548Z,99.90
2017-08-28T00:25:08.988Z,99.90
2017-08-28T00:27:36.455Z,99.90
2017-08-28T00:30:03.883Z,99.90
2017-08-28T00:32:31.315Z,99.90
2017-08-28T00:34:58.855Z,99.90
2017-08-28T00:37:26.281Z,99.90
2017-08-28T00:39:53.710Z,99.90
2017-08-28T00:42:21.254Z,99.90
2017-08-28T00:44:48.772Z,99.90
2017-08-28T00:47:16.223Z,99.90
2017-08-28T00:49:43.679Z,99.90
2017-08-28T00:52:11.138Z,99.90
2017-08-28T00:54:38.613Z,99.90
2017-08-28T00:57:06.059Z,99.90
2017-08-28T00:59:33.494Z,99.90
2017-08-28T01:02:00.935Z,99.90
2017-08-28T01:04:28.440Z,99.90
2017-08-28T01:06:55.879Z,99.90
2017-08-28T01:09:23.355Z,99.90
2017-08-28T01:11:50.890Z,99.90
2017-08-28T01:14:18.370Z,99.90
2017-08-28T01:16:45.911Z,99.90
2017-08-28T01:19:13.386Z,99.90
2017-08-28T01:21:40.923Z,99.90
2017-08-28T01:24:08.414Z,99.90
2017-08-28T01:26:35.973Z,99.90
2017-08-28T01:29:03.498Z,99.90
2017-08-28T01:31:30.948Z,99.90
2017-08-28T01:33:58.415Z,99.90
2017-08-28T01:36:25.850Z,99.90
2017-08-28T01:38:53.350Z,99.90
2017-08-28T01:41:20.767Z,99.90
2017-08-28T01:43:48.226Z,99.90
2017-08-28T01:46:15.709Z,99.90
2017-08-28T01:48:43.254Z,99.90
2017-08-28T01:51:10.692Z,99.90
2017-08-28T01:53:38.134Z,99.90
2017-08-28T01:56:05.577Z,99.90
2017-08-28T01:58:33.002Z,99.90
2017-08-28T02:01:00.438Z,99.90
2017-08-28T02:03:27.982Z,99.90
2017-08-28T02:05:55.430Z,99.90
2017-08-28T02:08:22.899Z,99.90
2017-08-28T02:10:50.372Z,99.90
2017-08-28T02:13:17.803Z,99.90
2017-08-28T02:15:45.352Z,99.90
2017-08-28T02:18:12.832Z,99.90
2017-08-28T02:20:40.289Z,99.90
2017-08-28T02:23:07.766Z,99.90
2017-08-28T02:25:35.238Z,99.90
2017-08-28T02:28:02.841Z,99.90
2017-08-28T02:30:30.275Z,99.90
2017-08-28T02:32:57.770Z,99.90
2017-08-28T02:35:25.225Z,99.90
2017-08-28T02:37:52.703Z,99.90
2017-08-28T02:40:20.158Z,99.90
2017-08-28T02:42:47.600Z,99.90
2017-08-28T02:45:15.070Z,99.90
2017-08-28T02:47:42.559Z,99.90
2017-08-28T02:50:10.067Z,99.90
2017-08-28T02:52:37.531Z,99.90
2017-08-28T02:55:05.093Z,99.90
2017-08-28T02:57:32.535Z,99.90
2017-08-28T03:00:00.008Z,99.90
2017-08-28T03:02:27.446Z,99.90
2017-08-28T03:04:54.907Z,99.90
2017-08-28T03:07:22.349Z,99.90
2017-08-28T03:09:49.798Z,99.90
2017-08-28T03:12:17.256Z,99.90
2017-08-28T03:14:44.697Z,99.90
2017-08-28T03:17:12.151Z,99.90
2017-08-28T03:19:39.648Z,99.90
2017-08-28T03:22:07.150Z,99.90
2017-08-28T03:24:34.588Z,99.90
2017-08-28T03:27:02.047Z,99.90
2017-08-28T03:29:29.585Z,99.90
2017-08-28T03:31:57.126Z,99.90
2017-08-28T03:34:24.717Z,99.90
2017-08-28T03:36:52.175Z,99.90
2017-08-28T03:39:19.611Z,99.90
2017-08-28T03:41:47.143Z,99.90
2017-08-28T03:44:14.575Z,99.90
2017-08-28T03:46:42.006Z,99.90
2017-08-28T03:49:09.461Z,99.90
2017-08-28T03:51:36.899Z,99.90
2017-08-28T03:54:04.330Z,99.90
2017-08-28T03:56:31.864Z,99.90
2017-08-28T03:58:59.296Z,99.90
2017-08-28T04:01:26.735Z,99.90
2017-08-28T04:03:54.174Z,99.90
2017-08-28T04:06:21.631Z,99.90
2017-08-28T04:08:49.083Z,99.90
2017-08-28T04:11:16.621Z,99.90
2017-08-28T04:13:44.083Z,99.90
2017-08-28T04:16:11.520Z,99.90
2017-08-28T04:18:38.963Z,99.90
2017-08-28T04:21:06.394Z,99.90
2017-08-28T04:23:34.633Z,99.90
2017-08-28T04:26:02.179Z,99.90
2017-08-28T04:28:29.640Z,99.90
2017-08-28T04:30:57.098Z,99.90
2017-08-28T04:33:24.629Z,99.90
2017-08-28T04:35:52.158Z,99.90
2017-08-28T04:38:20.367Z,99.90
2017-08-28T04:40:47.798Z,99.90
2017-08-28T04:43:15.290Z,99.90
2017-08-28T04:45:42.728Z,99.90
2017-08-28T04:48:10.162Z,99.90
2017-08-28T04:50:37.614Z,99.90
2017-08-28T04:53:05.093Z,99.90
2017-08-28T04:55:32.622Z,99.90
2017-08-28T04:58:00.063Z,99.90
2017-08-28T05:00:27.517Z,99.90
2017-08-28T05:02:54.958Z,99.90
2017-08-28T05:05:22.429Z,99.90
2017-08-28T05:07:49.859Z,99.90
2017-08-28T05:10:17.300Z,99.90
2017-08-28T05:12:45.518Z,99.90
2017-08-28T05:15:12.962Z,99.90
2017-08-28T05:17:40.448Z,99.90
2017-08-28T05:20:07.918Z,99.90
2017-08-28T05:22:35.351Z,99.90
2017-08-28T05:25:02.802Z,99.90
2017-08-28T05:27:30.418Z,99.90
2017-08-28T05:29:57.851Z,99.90
2017-08-28T05:32:25.361Z,99.90
2017-08-28T05:34:52.908Z,99.90
2017-08-28T05:37:20.359Z,99.90
2017-08-28T05:39:47.993Z,99.90
2017-08-28T05:42:15.560Z,99.90
2017-08-28T05:44:43.056Z,99.90
2017-08-28T05:47:10.560Z,99.90
2017-08-28T05:49:38.054Z,99.90
2017-08-28T05:52:05.520Z,99.90
2017-08-28T05:54:32.954Z,99.90
2017-08-28T05:57:00.444Z,99.90
2017-08-28T05:59:27.975Z,99.90
2017-08-28T06:01:55.440Z,99.90
2017-08-28T06:04:22.883Z,99.90
2017-08-28T06:06:50.427Z,99.90
2017-08-28T06:09:17.858Z,99.90
2017-08-28T06:11:45.375Z,99.90
2017-08-28T06:14:12.900Z,99.90
2017-08-28T06:16:40.328Z,99.90
2017-08-28T06:19:07.802Z,99.90
2017-08-28T06:21:35.266Z,99.90
2017-08-28T06:24:02.726Z,99.90
2017-08-28T06:26:30.154Z,99.90
2017-08-28T06:28:57.634Z,99.90
2017-08-28T06:31:25.058Z,99.90
2017-08-28T06:33:52.522Z,99.90
2017-08-28T06:36:19.957Z,99.90
2017-08-28T06:38:47.562Z,99.90
2017-08-28T06:41:15.029Z,99.90
2017-08-28T06:43:43.852Z,99.90
2017-08-28T06:46:11.270Z,99.90
2017-08-28T06:48:38.759Z,99.90
2017-08-28T06:51:06.222Z,99.90
2017-08-28T06:53:33.756Z,99.90
2017-08-28T06:56:01.250Z,99.90
2017-08-28T06:58:28.749Z,99.90
2017-08-28T07:00:56.171Z,99.90
2017-08-28T07:03:23.685Z,99.90
2017-08-28T07:05:51.156Z,99.90
2017-08-28T07:08:18.660Z,99.90
2017-08-28T07:10:46.236Z,99.90
2017-08-28T07:13:13.702Z,99.90
2017-08-28T07:15:41.166Z,99.90
2017-08-28T07:18:08.639Z,99.90
2017-08-28T07:20:36.081Z,99.90
2017-08-28T07:23:03.619Z,99.90
2017-08-28T07:25:31.099Z,99.90
2017-08-28T07:27:58.528Z,99.90
2017-08-28T07:30:25.995Z,99.90
2017-08-28T07:32:53.499Z,99.90
2017-08-28T07:35:21.839Z,99.90
2017-08-28T07:37:49.295Z,99.90
2017-08-28T07:40:16.854Z,99.90
2017-08-28T07:42:44.296Z,99.90
2017-08-28T07:45:11.734Z,99.90
2017-08-28T07:47:39.211Z,99.90
2017-08-28T07:50:06.708Z,99.90
2017-08-28T07:52:34.324Z,99.90
2017-08-28T07:55:01.804Z,99.90
2017-08-28T07:57:29.280Z,99.90
2017-08-28T07:59:56.915Z,99.90
2017-08-28T08:02:24.416Z,99.90
2017-08-28T08:04:51.851Z,99.90
2017-08-28T08:07:19.307Z,99.90
2017-08-28T08:09:46.765Z,99.90
2017-08-28T08:12:14.280Z,99.90
2017-08-28T08:14:41.730Z,99.90
2017-08-28T08:17:09.198Z,99.90
2017-08-28T08:19:36.751Z,99.90
2017-08-28T08:22:04.244Z,99.90
2017-08-28T08:24:31.691Z,99.90
2017-08-28T08:26:59.150Z,99.90
2017-08-28T08:29:26.596Z,99.90
2017-08-28T08:31:54.042Z,99.90
2017-08-28T08:34:23.456Z,99.90
2017-08-28T08:36:50.894Z,99.90
2017-08-28T08:39:18.318Z,99.90
2017-08-28T08:41:45.751Z,99.90
2017-08-28T08:44:13.196Z,99.90
2017-08-28T08:46:40.631Z,99.90
2017-08-28T08:49:08.062Z,99.90
2017-08-28T08:51:35.559Z,99.90
2017-08-28T08:54:02.971Z,99.90
2017-08-28T08:56:30.538Z,99.90
2017-08-28T08:58:57.996Z,99.90
2017-08-28T09:01:25.540Z,99.90
2017-08-28T09:03:53.037Z,99.90
2017-08-28T09:06:20.472Z,99.90
2017-08-28T09:08:47.907Z,99.90
2017-08-28T09:11:15.380Z,99.90
2017-08-28T09:13:42.972Z,99.90
2017-08-28T09:16:10.392Z,99.90
2017-08-28T09:18:37.953Z,99.90
2017-08-28T09:21:05.423Z,99.90
2017-08-28T09:23:32.892Z,99.90
2017-08-28T09:26:00.447Z,99.90
2017-08-28T09:28:27.910Z,99.90
2017-08-28T09:30:55.323Z,99.90
2017-08-28T09:33:22.895Z,99.90
2017-08-28T09:35:50.483Z,99.90
2017-08-28T09:38:17.923Z,99.90
2017-08-28T09:40:45.386Z,99.90
2017-08-28T09:43:12.846Z,99.90
2017-08-28T09:45:40.343Z,99.90
2017-08-28T09:48:07.855Z,99.90
2017-08-28T09:50:35.397Z,99.90
2017-08-28T09:53:02.878Z,99.90
2017-08-28T09:55:30.412Z,99.90
2017-08-28T09:57:57.910Z,99.90
2017-08-28T10:00:25.345Z,99.90
2017-08-28T10:02:52.803Z,99.90
2017-08-28T10:05:20.259Z,99.90
2017-08-28T10:07:47.709Z,99.90
2017-08-28T10:10:15.147Z,99.90
2017-08-28T10:12:42.624Z,99.90
2017-08-28T10:15:10.163Z,99.90
2017-08-28T10:17:37.582Z,99.90
2017-08-28T10:20:05.085Z,99.90
2017-08-28T10:22:32.521Z,99.90
2017-08-28T10:24:59.947Z,99.90
2017-08-28T10:27:27.016Z,99.90
2017-08-28T10:29:54.539Z,99.90
2017-08-28T10:32:22.091Z,99.90
2017-08-28T10:34:49.558Z,99.90
2017-08-28T10:37:17.046Z,99.90
2017-08-28T10:39:44.543Z,99.90
2017-08-28T10:42:12.058Z,99.90
2017-08-28T10:44:39.518Z,99.90
2017-08-28T10:47:06.949Z,99.90
2017-08-28T10:49:34.414Z,99.90
2017-08-28T10:52:01.861Z,99.90
2017-08-28T10:54:29.320Z,99.90
2017-08-28T10:56:56.755Z,99.90
2017-08-28T10:59:24.286Z,99.90
2017-08-28T11:01:51.767Z,99.90
2017-08-28T11:04:19.981Z,99.90
2017-08-28T11:06:47.479Z,99.90
2017-08-28T11:09:15.034Z,99.90
2017-08-28T11:11:42.486Z,99.90
2017-08-28T11:14:09.949Z,99.90
2017-08-28T11:16:37.420Z,99.90
2017-08-28T11:19:04.855Z,99.90
2017-08-28T11:21:32.317Z,99.90
2017-08-28T11:23:59.780Z,99.90
2017-08-28T11:26:27.246Z,99.90
2017-08-28T11:28:54.688Z,99.90
2017-08-28T11:31:22.156Z,99.90
2017-08-28T11:33:49.601Z,99.90
2017-08-28T11:36:17.030Z,99.90
2017-08-28T11:38:44.454Z,99.90
2017-08-28T11:41:12.005Z,99.90
2017-08-28T11:43:39.422Z,99.90
2017-08-28T11:46:06.891Z,99.90
2017-08-28T11:48:34.329Z,99.90
2017-08-28T11:51:01.771Z,99.90
2017-08-28T11:53:29.226Z,99.90
2017-08-28T11:55:56.826Z,99.90
2017-08-28T11:58:24.306Z,99.90
2017-08-28T12:00:51.823Z,99.90
2017-08-28T12:03:19.363Z,99.90
2017-08-28T12:05:46.923Z,99.90
2017-08-28T12:08:14.355Z,99.90
2017-08-28T12:10:41.835Z,99.90
2017-08-28T12:13:09.303Z,99.90
2017-08-28T12:15:36.799Z,99.90
2017-08-28T12:18:04.239Z,99.90
2017-08-28T12:20:31.704Z,99.90
2017-08-28T12:22:59.137Z,99.90
2017-08-28T12:25:26.574Z,99.90
2017-08-28T12:27:54.059Z,99.90
2017-08-28T12:30:21.499Z,99.90
2017-08-28T12:32:48.971Z,99.90
2017-08-28T12:35:16.420Z,99.90
2017-08-28T12:37:43.872Z,99.90
2017-08-28T12:40:11.338Z,99.90
2017-08-28T12:42:38.788Z,99.90
2017-08-28T12:45:06.246Z,99.90
2017-08-28T12:47:33.725Z,99.90
2017-08-28T12:50:01.160Z,99.90
2017-08-28T12:52:28.727Z,99.90
2017-08-28T12:54:56.166Z,99.90
2017-08-28T12:57:23.625Z,99.90
2017-08-28T12:59:51.094Z,99.90
2017-08-28T13:02:18.576Z,99.90
2017-08-28T13:04:46.010Z,99.90
2017-08-28T13:07:13.467Z,99.90
2017-08-28T13:09:40.922Z,99.90
2017-08-28T13:12:08.371Z,99.90
2017-08-28T13:14:35.909Z,99.90
2017-08-28T13:17:03.423Z,99.90
2017-08-28T13:19:30.859Z,99.90
2017-08-28T13:21:58.298Z,99.90
2017-08-28T13:24:25.758Z,99.90
2017-08-28T13:26:53.314Z,99.90
2017-08-28T13:29:20.755Z,99.90
2017-08-28T13:31:48.226Z,99.90
2017-08-28T13:34:15.671Z,99.90
2017-08-28T13:36:43.132Z,99.90
2017-08-28T13:39:10.579Z,99.90
2017-08-28T13:41:38.166Z,99.90
2017-08-28T13:44:05.622Z,99.90
2017-08-28T13:46:33.089Z,99.90
2017-08-28T13:49:00.668Z,99.90
2017-08-28T13:51:28.224Z,99.90
2017-08-28T13:53:55.715Z,99.90
2017-08-28T13:56:23.147Z,99.90
2017-08-28T13:58:50.607Z,99.90
2017-08-28T14:01:18.188Z,99.90
2017-08-28T14:03:45.658Z,99.90
2017-08-28T14:06:13.129Z,99.90
2017-08-28T14:08:40.557Z,99.90
2017-08-28T14:11:08.039Z,99.90
2017-08-28T14:13:35.492Z,99.90
2017-08-28T14:16:02.919Z,99.90
2017-08-28T14:18:30.447Z,99.90
2017-08-28T14:20:57.881Z,99.90
2017-08-28T14:23:25.497Z,99.90
2017-08-28T14:25:52.945Z,99.90
2017-08-28T14:28:20.400Z,99.90
2017-08-28T14:30:47.878Z,99.90
2017-08-28T14:33:15.347Z,99.90
2017-08-28T14:35:42.985Z,99.90
2017-08-28T14:38:10.502Z,99.90
2017-08-28T14:40:37.931Z,99.90
2017-08-28T14:43:05.371Z,99.90
2017-08-28T14:45:32.958Z,99.90
2017-08-28T14:48:00.484Z,99.90
2017-08-28T14:50:27.934Z,99.90
2017-08-28T14:52:55.375Z,99.90
2017-08-28T14:55:22.826Z,99.90
2017-08-28T14:57:50.348Z,99.90
2017-08-28T15:00:17.797Z,99.90
2017-08-28T15:02:45.227Z,99.90
2017-08-28T15:05:12.686Z,99.90
2017-08-28T15:07:40.139Z,99.90
2017-08-28T15:10:07.772Z,99.90
2017-08-28T15:12:35.229Z,99.90
2017-08-28T15:15:02.683Z,99.90
2017-08-28T15:17:30.123Z,99.90
2017-08-28T15:19:57.576Z,99.90
2017-08-28T15:22:25.778Z,99.90
2017-08-28T15:24:53.199Z,99.90
2017-08-28T15:27:20.660Z,99.90
2017-08-28T15:29:48.176Z,99.90
2017-08-28T15:32:15.610Z,99.90
2017-08-28T15:34:43.058Z,99.90
2017-08-28T15:37:10.622Z,99.90
2017-08-28T15:39:38.117Z,99.90
2017-08-28T15:42:05.559Z,99.10
2017-08-28T15:44:33.026Z,96.10
2017-08-28T15:47:00.453Z,94.20
2017-08-28T15:49:27.930Z,90.70
2017-08-28T15:51:55.488Z,87.20
2017-08-28T15:54:22.933Z,81.30
2017-08-28T15:56:50.397Z,79.30
2017-08-28T15:59:17.866Z,78.30
2017-08-28T16:01:45.318Z,73.90
2017-08-28T16:04:12.772Z,70.90
2017-08-28T16:06:40.333Z,67.40
2017-08-28T16:09:07.863Z,65.10
2017-08-28T16:11:35.520Z,62.90
2017-08-28T16:14:02.977Z,61.80
2017-08-28T16:16:30.415Z,61.60
2017-08-28T16:18:57.888Z,59.70
2017-08-28T16:21:25.584Z,61.40
2017-08-28T16:23:53.114Z,61.00
2017-08-28T16:26:20.563Z,59.50
2017-08-28T16:28:47.996Z,59.60
2017-08-28T16:31:15.494Z,59.20
2017-08-28T16:33:43.513Z,59.40
2017-08-28T16:36:10.947Z,60.90
2017-08-28T16:38:38.400Z,60.60
2017-08-28T16:41:05.915Z,60.30
2017-08-28T16:43:33.395Z,60.20
2017-08-28T16:46:00.953Z,58.90
2017-08-28T16:48:28.411Z,59.10
2017-08-28T16:50:55.882Z,59.60
2017-08-28T16:53:23.323Z,60.00
2017-08-28T16:55:50.780Z,60.70
2017-08-28T16:58:18.242Z,60.00
2017-08-28T17:00:45.783Z,61.00
2017-08-28T17:03:13.226Z,60.00
2017-08-28T17:05:40.714Z,61.00
2017-08-28T17:08:08.273Z,62.70
2017-08-28T17:10:35.800Z,64.30
2017-08-28T17:13:03.250Z,66.10
2017-08-28T17:15:30.713Z,67.40
2017-08-28T17:17:58.210Z,70.00
2017-08-28T17:20:25.762Z,69.90
2017-08-28T17:22:53.218Z,70.70
2017-08-28T17:25:20.743Z,71.10
2017-08-28T17:27:48.227Z,72.30
2017-08-28T17:30:15.670Z,73.80
2017-08-28T17:32:43.149Z,74.40
2017-08-28T17:35:10.587Z,75.30
2017-08-28T17:37:38.010Z,76.20
2017-08-28T17:40:05.528Z,77.90
2017-08-28T17:42:32.962Z,78.90
2017-08-28T17:45:00.411Z,79.90
2017-08-28T17:47:27.971Z,81.40
2017-08-28T17:49:55.501Z,82.70
2017-08-28T17:52:22.934Z,84.00
2017-08-28T17:54:51.204Z,85.80
2017-08-28T17:57:19.396Z,86.90
2017-08-28T17:59:46.872Z,86.90
2017-08-28T18:02:14.345Z,88.40
2017-08-28T18:04:41.788Z,89.90
2017-08-28T18:07:09.219Z,90.70
2017-08-28T18:09:36.731Z,91.60
2017-08-28T18:12:04.172Z,92.30
2017-08-28T18:14:31.643Z,92.80
2017-08-28T18:16:59.178Z,93.60
2017-08-28T18:19:26.626Z,94.40
2017-08-28T18:21:54.103Z,95.30
2017-08-28T18:24:21.551Z,95.90
2017-08-28T18:26:49.023Z,97.10
2017-08-28T18:29:16.474Z,97.40
2017-08-28T18:31:43.918Z,98.40
2017-08-28T18:34:11.376Z,99.10
2017-08-28T18:36:38.838Z,99.50
2017-08-28T18:39:06.413Z,99.90
2017-08-28T18:41:33.998Z,99.90
2017-08-28T18:44:02.253Z,99.90
2017-08-28T18:46:29.715Z,99.90
2017-08-28T18:48:57.331Z,99.90
2017-08-28T18:51:25.618Z,99.90
2017-08-28T18:53:53.046Z,99.90
2017-08-28T18:56:20.555Z,99.90
2017-08-28T18:58:47.983Z,99.90
2017-08-28T19:01:15.432Z,99.90
2017-08-28T19:03:43.388Z,99.90
2017-08-28T19:06:10.887Z,99.90
2017-08-28T19:08:38.334Z,99.90
2017-08-28T19:11:05.767Z,99.90
2017-08-28T19:13:33.206Z,99.90
2017-08-28T19:16:00.654Z,99.90
2017-08-28T19:18:28.088Z,99.90
2017-08-28T19:20:55.694Z,99.90
2017-08-28T19:23:23.122Z,99.90
2017-08-28T19:25:50.575Z,99.90
2017-08-28T19:28:18.002Z,99.90
2017-08-28T19:30:45.539Z,99.90
2017-08-28T19:33:12.979Z,99.90
2017-08-28T19:35:40.484Z,99.90
2017-08-28T19:38:08.006Z,99.90
2017-08-28T19:40:35.567Z,99.90
2017-08-28T19:43:03.027Z,99.90
2017-08-28T19:45:30.482Z,99.90
2017-08-28T19:47:57.972Z,99.90
2017-08-28T19:50:25.420Z,99.90
2017-08-28T19:52:52.951Z,99.90
2017-08-28T19:55:20.397Z,99.90
2017-08-28T19:57:47.818Z,99.90
2017-08-28T20:00:15.300Z,99.90
2017-08-28T20:02:48.390Z,99.90
2017-08-28T20:05:15.812Z,99.90
2017-08-28T20:07:43.256Z,99.90
2017-08-28T20:10:10.793Z,99.90
2017-08-28T20:12:40.745Z,99.90
2017-08-28T20:15:08.199Z,99.90
2017-08-28T20:17:36.937Z,99.90
2017-08-28T20:20:04.390Z,99.90
2017-08-28T20:22:31.820Z,99.90
2017-08-28T20:24:59.258Z,99.90
2017-08-28T20:27:26.688Z,99.90
2017-08-28T20:29:54.162Z,99.90
2017-08-28T20:32:21.666Z,99.90
2017-08-28T20:34:49.151Z,99.90
2017-08-28T20:37:16.669Z,99.90
2017-08-28T20:39:44.110Z,99.90
2017-08-28T20:42:11.546Z,99.90
2017-08-28T20:44:38.972Z,99.90
2017-08-28T20:47:06.552Z,99.90
2017-08-28T20:49:34.071Z,99.90
2017-08-28T20:52:01.542Z,99.90
2017-08-28T20:54:28.973Z,99.90
2017-08-28T20:56:56.426Z,99.90
2017-08-28T20:59:23.850Z,99.90
2017-08-28T21:01:51.370Z,99.90
2017-08-28T21:04:18.811Z,99.90
2017-08-28T21:06:46.273Z,99.90
2017-08-28T21:09:13.700Z,99.90
2017-08-28T21:11:41.136Z,99.90
2017-08-28T21:14:08.574Z,99.90
2017-08-28T21:16:36.022Z,99.90
2017-08-28T21:19:03.559Z,99.90
2017-08-28T21:21:31.248Z,99.90
2017-08-28T21:23:58.667Z,99.90
2017-08-28T21:26:26.231Z,99.90
2017-08-28T21:28:53.662Z,99.90
2017-08-28T21:31:22.359Z,99.90
2017-08-28T21:33:49.815Z,99.90
2017-08-28T21:36:17.289Z,99.90
2017-08-28T21:38:44.838Z,99.90
2017-08-28T21:41:12.284Z,99.90
2017-08-28T21:43:39.730Z,99.90
2017-08-28T21:46:07.168Z,99.90
2017-08-28T21:48:34.760Z,99.90
2017-08-28T21:51:02.195Z,99.90
2017-08-28T21:53:29.766Z,99.90
2017-08-28T21:55:57.325Z,99.90
2017-08-28T21:58:24.798Z,99.90
2017-08-28T22:00:52.246Z,99.90
2017-08-28T22:03:19.686Z,99.90
2017-08-28T22:05:47.145Z,99.90
2017-08-28T22:08:14.607Z,99.90
2017-08-28T22:10:42.045Z,99.90
2017-08-28T22:13:09.480Z,99.90
2017-08-28T22:15:36.946Z,99.90
2017-08-28T22:18:04.400Z,99.90
2017-08-28T22:20:31.912Z,99.90
2017-08-28T22:22:59.342Z,99.90
2017-08-28T22:25:26.803Z,99.90
2017-08-28T22:27:54.268Z,99.90
2017-08-28T22:30:21.758Z,99.90
2017-08-28T22:32:49.232Z,99.90
2017-08-28T22:35:16.720Z,99.90
2017-08-28T22:37:44.245Z,99.90
2017-08-28T22:40:11.712Z,99.90
2017-08-28T22:42:39.247Z,99.90
2017-08-28T22:45:06.725Z,99.90
2017-08-28T22:47:34.248Z,99.90
2017-08-28T22:50:01.713Z,99.90
2017-08-28T22:52:29.277Z,99.90
2017-08-28T22:54:56.757Z,99.90
2017-08-28T22:57:24.300Z,99.90
2017-08-28T22:59:52.560Z,99.90
2017-08-28T23:02:20.009Z,99.90
2017-08-28T23:04:47.468Z,99.90
2017-08-28T23:07:14.895Z,99.90
2017-08-28T23:09:42.334Z,99.90
2017-08-28T23:12:09.774Z,99.90
2017-08-28T23:14:37.385Z,99.90
2017-08-28T23:17:04.861Z,99.90
2017-08-28T23:19:32.357Z,99.90
2017-08-28T23:22:00.806Z,99.90
2017-08-28T23:24:28.352Z,99.90
2017-08-28T23:26:55.815Z,99.90
2017-08-28T23:29:23.319Z,99.90
2017-08-28T23:31:50.776Z,99.90
2017-08-28T23:34:18.257Z,99.90
2017-08-28T23:36:45.732Z,99.90
2017-08-28T23:39:13.210Z,99.90
2017-08-28T23:41:40.646Z,99.90
2017-08-28T23:44:08.103Z,99.90
2017-08-28T23:46:35.535Z,99.90
2017-08-28T23:49:02.983Z,99.90
2017-08-28T23:51:30.423Z,99.90
2017-08-28T23:53:57.878Z,99.90
2017-08-28T23:56:25.324Z,99.90
2017-08-28T23:58:52.813Z,99.90
